ADDS METAR Data INFO
IDs: Format: Raw Decoded Include TAF

Data at: 0029 UTC 11 Dec 2017

KCNW 102355Z 18004KT 10SM SKC 14/M04 A3032
KCNW 102255Z 20003KT 10SM SKC 20/M04 A3032
KCNW 102155Z 23007KT 10SM SKC 22/M06 A3033
KCNW 102055Z 22008KT 10SM SKC 22/M07 A3033
KCNW 101955Z 24007KT 10SM SKC 21/M06 A3035
KCNW 101855Z 25006KT 10SM SKC 20/M04 A3037
KCNW 101755Z 23011KT 10SM SKC 18/M03 A3042
KCNW 101655Z 22004KT 10SM SKC 14/M02 A3044
KCNW 101555Z 25004KT 10SM SKC 09/M02 A3045
KCNW 101455Z 29004KT 10SM SKC 04/M02 A3045
KCNW 101355Z 00000KT 10SM SKC 00/M03 A3043
KCNW 101255Z 00000KT 10SM SKC M02/M04 A3041
KCNW 100455Z 00000KT 10SM SKC 03/M03 A3039
KCNW 100355Z 00000KT 10SM SKC 04/M04 A3036
KCNW 100255Z 28003KT 10SM SKC 07/M04 A3035
KCNW 100155Z 34003KT 10SM SKC 07/M05 A3032
KCNW 100055Z 01003KT 10SM SKC 10/M06 A3030
KCNW 092355Z 35007KT 10SM SKC 12/M07 A3028
KCNW 092255Z 34010G14KT 10SM SKC 16/M06 A3026
KCNW 092155Z 32011G17KT 10SM SKC 17/M06 A3024
KCNW 092055Z 29010G15KT 10SM SKC 18/M06 A3024
KCNW 091955Z 31010G18KT 10SM SKC 18/M06 A3024
KCNW 091855Z 31010G18KT 10SM SKC 17/M06 A3025
KCNW 091755Z 31010G18KT 10SM SKC 15/M05 A3028
KCNW 091655Z 31010KT 10SM SKC 13/M03 A3030
KCNW 091555Z 34003KT 10SM SKC 06/M02 A3030
KCNW 091455Z 34003KT 10SM SKC 04/M01 A3028
KCNW 091355Z 34003KT 10SM SKC M01/M03 A3025
KCNW 091255Z 34003KT 10SM SKC M01/M03 A3023